Time;durP1;ratioP1;P1;durP2;ratioP2;P2;SDS_P1;SDS_P2;PMS_P1;PMS_P2;Temp;Humidity;BMP_temperature;BMP_pressure;BME280_temperature;BME280_humidity;BME280_pressure;Samples;Min_cycle;Max_cycle;Signal;HPM_P1;HPM_P2
2021/07/11 00:00:17;;;;;;;;;;;18.90;99.90;;;;;;5034121;28;19925;-75
2021/07/11 00:02:42;;;;;;;;;;;18.90;99.90;;;;;;5032277;28;19924;-73
2021/07/11 00:05:09;;;;;;;;;;;18.90;99.90;;;;;;5040218;28;19909;-73
2021/07/11 00:07:34;;;;;;;;;;;18.90;99.90;;;;;;5038210;28;20387;-73
2021/07/11 00:10:00;;;;;;;;;;;18.90;99.90;;;;;;5044421;28;19909;-73
2021/07/11 00:12:26;;;;;;;;;;;18.90;99.90;;;;;;5040258;28;19909;-73
2021/07/11 00:14:52;;;;;;;;;;;18.80;99.90;;;;;;5037518;28;19955;-73
2021/07/11 00:17:18;;;;;;;;;;;18.90;99.90;;;;;;5038186;28;19956;-74
2021/07/11 00:19:43;;;;;;;;;;;18.90;99.90;;;;;;5033498;28;19917;-73
2021/07/11 00:22:09;;;;;;;;;;;18.80;99.90;;;;;;5035823;28;19917;-74
2021/07/11 00:24:39;;;;;;;;;;;18.90;99.90;;;;;;5033814;28;20301;-74
2021/07/11 00:27:04;;;;;;;;;;;18.80;99.90;;;;;;5035361;28;19932;-74
2021/07/11 00:29:30;;;;;;;;;;;18.90;99.90;;;;;;5035390;28;19909;-73
2021/07/11 00:31:55;;;;;;;;;;;18.80;99.90;;;;;;5034862;28;19909;-73
2021/07/11 00:34:21;;;;;;;;;;;18.90;99.90;;;;;;5035615;28;19909;-73
2021/07/11 00:36:46;;;;;;;;;;;18.90;99.90;;;;;;5034834;28;19963;-73
2021/07/11 00:39:12;;;;;;;;;;;18.90;99.90;;;;;;5035373;28;19917;-73
2021/07/11 00:41:38;;;;;;;;;;;18.80;99.90;;;;;;5034762;28;19909;-73
2021/07/11 00:44:05;;;;;;;;;;;18.80;99.90;;;;;;5034819;28;19944;-75
2021/07/11 00:46:30;;;;;;;;;;;18.80;99.90;;;;;;5032460;28;20400;-73
2021/07/11 00:48:55;;;;;;;;;;;18.80;99.90;;;;;;5035271;28;19948;-73
2021/07/11 00:51:22;;;;;;;;;;;18.70;99.90;;;;;;5034851;28;20376;-73
2021/07/11 00:53:51;;;;;;;;;;;18.70;99.90;;;;;;5035504;28;19909;-73
2021/07/11 00:56:17;;;;;;;;;;;18.70;99.90;;;;;;5035002;28;19909;-73
2021/07/11 00:58:43;;;;;;;;;;;18.60;99.90;;;;;;5035109;28;19962;-73
2021/07/11 01:01:09;;;;;;;;;;;18.60;99.90;;;;;;5034637;28;19974;-73
2021/07/11 01:03:35;;;;;;;;;;;18.60;99.90;;;;;;5035140;28;19925;-74
2021/07/11 01:06:02;;;;;;;;;;;18.60;99.90;;;;;;5031240;28;19909;-73
2021/07/11 01:08:33;;;;;;;;;;;18.60;99.90;;;;;;5033946;28;19908;-73
2021/07/11 01:11:04;;;;;;;;;;;18.60;99.90;;;;;;5034820;28;19913;-73
2021/07/11 01:13:30;;;;;;;;;;;18.70;99.90;;;;;;5035047;28;19917;-74
2021/07/11 01:15:58;;;;;;;;;;;18.90;99.90;;;;;;5032394;28;19915;-74
2021/07/11 01:18:24;;;;;;;;;;;18.90;99.90;;;;;;5031551;28;19909;-74
2021/07/11 01:21:01;;;;;;;;;;;18.90;99.90;;;;;;5033753;28;19917;-74
2021/07/11 01:23:35;;;;;;;;;;;18.80;99.90;;;;;;5035343;28;19921;-74
2021/07/11 01:26:01;;;;;;;;;;;18.80;99.90;;;;;;5032801;28;20000;-74
2021/07/11 01:28:27;;;;;;;;;;;18.70;99.90;;;;;;5046303;28;19954;-73
2021/07/11 01:30:53;;;;;;;;;;;18.60;99.90;;;;;;5033741;28;19910;-73
2021/07/11 01:33:20;;;;;;;;;;;18.60;99.90;;;;;;5035417;28;20363;-73
2021/07/11 01:35:46;;;;;;;;;;;18.60;99.90;;;;;;5047172;28;19991;-74
2021/07/11 01:38:11;;;;;;;;;;;18.60;99.90;;;;;;5051541;28;19931;-76
2021/07/11 01:40:37;;;;;;;;;;;18.60;99.90;;;;;;5053549;28;19909;-74
2021/07/11 01:43:04;;;;;;;;;;;18.50;99.90;;;;;;5052505;28;19921;-74
2021/07/11 01:45:29;;;;;;;;;;;18.40;99.90;;;;;;5058671;28;19916;-75
2021/07/11 01:47:55;;;;;;;;;;;18.30;99.90;;;;;;5057976;28;19917;-73
2021/07/11 01:50:21;;;;;;;;;;;18.30;99.90;;;;;;5059994;28;20317;-74
2021/07/11 01:52:46;;;;;;;;;;;18.40;99.90;;;;;;5058328;28;19948;-76
2021/07/11 01:55:13;;;;;;;;;;;18.40;99.90;;;;;;5065993;28;19980;-73
2021/07/11 01:57:38;;;;;;;;;;;18.40;99.90;;;;;;5063836;28;19966;-74
2021/07/11 02:00:05;;;;;;;;;;;18.50;99.90;;;;;;5061879;28;19912;-75
2021/07/11 02:02:31;;;;;;;;;;;18.50;99.90;;;;;;5056267;28;19913;-74
2021/07/11 02:04:56;;;;;;;;;;;18.50;99.90;;;;;;5056071;28;19921;-73
2021/07/11 02:07:22;;;;;;;;;;;18.60;99.90;;;;;;5055090;28;19956;-74
2021/07/11 02:09:47;;;;;;;;;;;18.50;99.90;;;;;;5072742;28;19912;-74
2021/07/11 02:12:13;;;;;;;;;;;18.60;99.90;;;;;;5064024;28;19909;-73
2021/07/11 02:14:41;;;;;;;;;;;18.60;99.90;;;;;;5063772;28;19917;-73
2021/07/11 02:17:09;;;;;;;;;;;18.60;99.90;;;;;;5063630;28;20422;-73
2021/07/11 02:19:37;;;;;;;;;;;18.50;99.90;;;;;;5067417;28;19916;-75
2021/07/11 02:22:04;;;;;;;;;;;18.50;99.90;;;;;;5049935;28;19946;-72
2021/07/11 02:24:31;;;;;;;;;;;18.50;99.90;;;;;;5046609;28;20430;-72
2021/07/11 02:26:56;;;;;;;;;;;18.50;99.90;;;;;;5043103;28;19956;-73
2021/07/11 02:29:23;;;;;;;;;;;18.50;99.90;;;;;;5042060;28;19963;-74
2021/07/11 02:31:49;;;;;;;;;;;18.50;99.90;;;;;;5035547;28;19967;-74
2021/07/11 02:34:14;;;;;;;;;;;18.50;99.90;;;;;;5035526;28;19913;-74
2021/07/11 02:36:44;;;;;;;;;;;18.50;99.90;;;;;;5037283;28;20259;-73
2021/07/11 02:39:14;;;;;;;;;;;18.40;99.90;;;;;;5052252;28;19959;-74
2021/07/11 02:41:46;;;;;;;;;;;18.40;99.90;;;;;;5033465;28;20453;-73
2021/07/11 02:44:12;;;;;;;;;;;18.50;99.90;;;;;;5039799;28;19947;-73
2021/07/11 02:46:39;;;;;;;;;;;18.60;99.90;;;;;;5037183;28;20341;-73
2021/07/11 02:49:05;;;;;;;;;;;18.60;99.90;;;;;;5043767;28;20429;-75
2021/07/11 02:51:34;;;;;;;;;;;18.60;99.90;;;;;;5044574;28;19912;-75
2021/07/11 02:54:00;;;;;;;;;;;18.60;99.90;;;;;;5038390;28;19908;-73
2021/07/11 02:56:25;;;;;;;;;;;18.60;99.90;;;;;;5040884;28;20293;-73
2021/07/11 02:58:51;;;;;;;;;;;18.50;99.90;;;;;;5040037;28;19944;-73
2021/07/11 03:01:18;;;;;;;;;;;18.50;99.90;;;;;;5034864;28;19951;-73
2021/07/11 03:03:44;;;;;;;;;;;18.50;99.90;;;;;;5032630;28;19925;-75
2021/07/11 03:06:10;;;;;;;;;;;18.50;99.90;;;;;;5042261;28;19915;-74
2021/07/11 03:08:35;;;;;;;;;;;18.50;99.90;;;;;;5046562;28;19908;-73
2021/07/11 03:11:02;;;;;;;;;;;18.50;99.90;;;;;;5041103;28;19916;-73
2021/07/11 03:13:28;;;;;;;;;;;18.50;99.90;;;;;;5039797;28;20312;-73
2021/07/11 03:15:54;;;;;;;;;;;18.50;99.90;;;;;;5042589;28;19916;-73
2021/07/11 03:18:20;;;;;;;;;;;18.60;99.90;;;;;;5037637;28;20354;-73
2021/07/11 03:20:46;;;;;;;;;;;18.60;99.90;;;;;;5036737;28;19909;-73
2021/07/11 03:23:11;;;;;;;;;;;18.60;99.90;;;;;;5034994;28;20277;-73
2021/07/11 03:25:38;;;;;;;;;;;18.60;99.90;;;;;;5046528;28;19967;-73
2021/07/11 03:28:06;;;;;;;;;;;18.60;99.90;;;;;;5050276;28;19908;-73
2021/07/11 03:30:36;;;;;;;;;;;18.50;99.90;;;;;;5043489;28;19954;-73
2021/07/11 03:33:04;;;;;;;;;;;18.50;99.90;;;;;;5043696;28;20395;-74
2021/07/11 03:35:31;;;;;;;;;;;18.50;99.90;;;;;;5048743;28;19917;-73
2021/07/11 03:37:59;;;;;;;;;;;18.50;99.90;;;;;;5037589;28;19917;-74
2021/07/11 03:40:29;;;;;;;;;;;18.50;99.90;;;;;;5046040;28;20086;-73
2021/07/11 03:42:55;;;;;;;;;;;18.50;99.90;;;;;;5036143;28;19917;-74
2021/07/11 03:45:21;;;;;;;;;;;18.50;99.90;;;;;;5034650;28;20507;-73
2021/07/11 03:47:52;;;;;;;;;;;18.50;99.90;;;;;;5037815;28;20353;-73
2021/07/11 03:50:21;;;;;;;;;;;18.50;99.90;;;;;;5038673;28;19999;-74
2021/07/11 03:52:52;;;;;;;;;;;18.50;99.90;;;;;;5034779;28;19931;-73
2021/07/11 03:55:18;;;;;;;;;;;18.50;99.90;;;;;;5035288;28;20383;-73
2021/07/11 03:57:45;;;;;;;;;;;18.50;99.90;;;;;;5035514;28;20008;-73
2021/07/11 04:00:11;;;;;;;;;;;18.50;99.90;;;;;;5035444;28;20266;-74
2021/07/11 04:02:37;;;;;;;;;;;18.50;99.90;;;;;;5035511;28;19974;-74
2021/07/11 04:05:04;;;;;;;;;;;18.40;99.90;;;;;;5034885;28;19954;-73
2021/07/11 04:07:32;;;;;;;;;;;18.50;99.90;;;;;;5036886;28;19909;-73
2021/07/11 04:09:58;;;;;;;;;;;18.50;99.90;;;;;;5035455;28;20424;-73
2021/07/11 04:12:24;;;;;;;;;;;18.50;99.90;;;;;;5045340;28;20341;-73
2021/07/11 04:14:49;;;;;;;;;;;18.50;99.90;;;;;;5041775;28;19916;-73
2021/07/11 04:17:17;;;;;;;;;;;18.50;99.90;;;;;;5046387;28;20346;-73
2021/07/11 04:19:43;;;;;;;;;;;18.60;99.90;;;;;;5039800;28;19956;-75
2021/07/11 04:22:10;;;;;;;;;;;18.50;99.90;;;;;;5038258;28;19917;-74
2021/07/11 04:24:36;;;;;;;;;;;18.60;99.90;;;;;;5042099;28;19913;-73
2021/07/11 04:27:03;;;;;;;;;;;18.60;99.90;;;;;;5047836;28;20323;-73
2021/07/11 04:29:30;;;;;;;;;;;18.60;99.90;;;;;;5036400;28;19908;-75
2021/07/11 04:31:55;;;;;;;;;;;18.60;99.90;;;;;;5045292;28;19920;-73
2021/07/11 04:34:31;;;;;;;;;;;18.60;99.90;;;;;;5045178;28;19909;-74
2021/07/11 04:36:57;;;;;;;;;;;18.50;99.90;;;;;;5035445;28;20003;-73
2021/07/11 04:39:23;;;;;;;;;;;18.40;99.90;;;;;;5042106;28;19909;-74
2021/07/11 04:41:49;;;;;;;;;;;18.50;99.90;;;;;;5051881;28;19934;-73
2021/07/11 04:44:14;;;;;;;;;;;18.50;99.90;;;;;;5034882;28;19917;-73
2021/07/11 04:46:40;;;;;;;;;;;18.50;99.90;;;;;;5044822;28;19909;-73
2021/07/11 04:49:06;;;;;;;;;;;18.50;99.90;;;;;;5038273;28;19917;-73
2021/07/11 04:51:32;;;;;;;;;;;18.50;99.90;;;;;;5038430;28;19924;-73
2021/07/11 04:53:57;;;;;;;;;;;18.60;99.90;;;;;;5043917;28;19909;-73
2021/07/11 04:56:23;;;;;;;;;;;18.60;99.90;;;;;;5042284;28;19917;-73
2021/07/11 04:58:48;;;;;;;;;;;18.60;99.90;;;;;;5041200;28;19951;-74
2021/07/11 05:01:14;;;;;;;;;;;18.60;99.90;;;;;;5034168;28;19916;-74
2021/07/11 05:03:39;;;;;;;;;;;18.60;99.90;;;;;;5031670;28;20007;-74
2021/07/11 05:06:05;;;;;;;;;;;18.60;99.90;;;;;;5043374;28;20275;-74
2021/07/11 05:08:30;;;;;;;;;;;18.60;99.90;;;;;;5043833;28;19995;-73
2021/07/11 05:10:56;;;;;;;;;;;18.70;99.90;;;;;;5044065;28;19963;-74
2021/07/11 05:13:21;;;;;;;;;;;18.70;99.90;;;;;;5041708;28;19908;-74
2021/07/11 05:15:48;;;;;;;;;;;18.70;99.90;;;;;;5041325;28;19909;-73
2021/07/11 05:18:13;;;;;;;;;;;18.70;99.90;;;;;;5041880;28;19950;-74
2021/07/11 05:20:39;;;;;;;;;;;18.80;99.90;;;;;;5036948;28;19944;-74
2021/07/11 05:23:04;;;;;;;;;;;18.80;99.90;;;;;;5032988;28;19968;-73
2021/07/11 05:25:32;;;;;;;;;;;18.80;99.90;;;;;;5038382;28;19909;-74
2021/07/11 05:28:02;;;;;;;;;;;18.80;99.90;;;;;;5035573;28;19923;-74
2021/07/11 05:30:28;;;;;;;;;;;18.70;99.90;;;;;;5033472;28;19915;-73
2021/07/11 05:32:54;;;;;;;;;;;18.70;99.90;;;;;;5035676;28;20377;-76
2021/07/11 05:35:19;;;;;;;;;;;18.70;99.90;;;;;;5039990;28;19917;-75
2021/07/11 05:37:44;;;;;;;;;;;18.70;99.90;;;;;;5037273;28;20273;-73
2021/07/11 05:40:11;;;;;;;;;;;18.60;99.90;;;;;;5047592;28;19909;-74
2021/07/11 05:42:37;;;;;;;;;;;18.60;99.90;;;;;;5035643;28;19909;-74
2021/07/11 05:45:03;;;;;;;;;;;18.60;99.90;;;;;;5043565;28;20380;-73
2021/07/11 05:47:28;;;;;;;;;;;18.70;99.90;;;;;;5034190;28;19917;-73
2021/07/11 05:49:54;;;;;;;;;;;18.70;99.90;;;;;;5036510;28;19952;-73
2021/07/11 05:52:20;;;;;;;;;;;18.80;99.90;;;;;;5039565;28;20377;-73
2021/07/11 05:54:45;;;;;;;;;;;18.80;99.90;;;;;;5039777;28;19947;-73
2021/07/11 05:57:11;;;;;;;;;;;18.80;99.90;;;;;;5046189;28;19909;-75
2021/07/11 05:59:36;;;;;;;;;;;18.80;99.90;;;;;;5036658;28;19917;-73
2021/07/11 06:02:02;;;;;;;;;;;18.90;99.90;;;;;;5041611;28;19931;-73
2021/07/11 06:04:27;;;;;;;;;;;18.90;99.90;;;;;;5037622;28;19920;-74
2021/07/11 06:06:53;;;;;;;;;;;18.90;99.90;;;;;;5042320;28;19909;-74
2021/07/11 06:09:18;;;;;;;;;;;19.00;99.90;;;;;;5036708;28;19951;-73
2021/07/11 06:11:43;;;;;;;;;;;19.00;99.90;;;;;;5034824;28;20377;-73
2021/07/11 06:14:09;;;;;;;;;;;19.00;99.90;;;;;;5031766;28;19916;-73
2021/07/11 06:16:35;;;;;;;;;;;19.00;99.90;;;;;;5048559;28;20372;-73
2021/07/11 06:19:00;;;;;;;;;;;19.10;99.90;;;;;;5034230;28;20324;-74
2021/07/11 06:21:26;;;;;;;;;;;19.10;99.90;;;;;;5038907;28;19909;-74
2021/07/11 06:23:51;;;;;;;;;;;19.10;99.90;;;;;;5033739;28;19917;-74
2021/07/11 06:26:17;;;;;;;;;;;19.10;99.90;;;;;;5037679;28;19959;-74
2021/07/11 06:28:42;;;;;;;;;;;19.20;99.90;;;;;;5028206;28;19912;-75
2021/07/11 06:31:07;;;;;;;;;;;19.20;99.90;;;;;;5024712;28;19959;-75
2021/07/11 06:33:33;;;;;;;;;;;19.20;99.90;;;;;;5025051;28;19913;-75
2021/07/11 06:35:59;;;;;;;;;;;19.20;99.90;;;;;;5025344;28;19915;-75
2021/07/11 06:38:24;;;;;;;;;;;19.20;99.90;;;;;;5024646;28;19955;-75
2021/07/11 06:40:49;;;;;;;;;;;19.20;99.90;;;;;;5025633;28;19917;-74
2021/07/11 06:43:15;;;;;;;;;;;19.20;99.90;;;;;;5024107;28;19913;-74
2021/07/11 06:45:41;;;;;;;;;;;19.20;99.90;;;;;;5026470;28;20000;-76
2021/07/11 06:48:07;;;;;;;;;;;19.20;99.90;;;;;;5025819;28;19913;-75
2021/07/11 06:50:32;;;;;;;;;;;19.30;99.90;;;;;;5025035;28;19912;-75
2021/07/11 06:52:58;;;;;;;;;;;19.20;99.90;;;;;;5025414;28;19920;-75
2021/07/11 06:55:23;;;;;;;;;;;19.20;99.90;;;;;;5024197;28;19953;-74
2021/07/11 06:57:49;;;;;;;;;;;19.20;99.90;;;;;;5026058;28;20403;-75
2021/07/11 07:00:14;;;;;;;;;;;19.20;99.90;;;;;;5026151;28;19963;-75
2021/07/11 07:02:41;;;;;;;;;;;19.30;99.90;;;;;;5025437;28;20377;-75
2021/07/11 07:05:08;;;;;;;;;;;19.30;99.90;;;;;;5023694;28;19963;-75
2021/07/11 07:07:35;;;;;;;;;;;19.30;99.90;;;;;;5024705;28;20276;-75
2021/07/11 07:10:03;;;;;;;;;;;19.30;99.90;;;;;;5026162;28;20372;-75
2021/07/11 07:12:28;;;;;;;;;;;19.30;99.90;;;;;;5025189;28;20357;-75
2021/07/11 07:14:54;;;;;;;;;;;19.30;99.90;;;;;;5024871;28;19917;-74
2021/07/11 07:17:19;;;;;;;;;;;19.40;99.90;;;;;;5025583;28;19952;-74
2021/07/11 07:19:45;;;;;;;;;;;19.40;99.90;;;;;;5022633;28;19917;-75
2021/07/11 07:22:10;;;;;;;;;;;19.40;99.90;;;;;;5024789;28;20316;-76
2021/07/11 07:24:36;;;;;;;;;;;19.30;99.90;;;;;;5025665;28;19919;-75
2021/07/11 07:27:01;;;;;;;;;;;19.30;99.90;;;;;;5023945;28;19909;-75
2021/07/11 07:32:11;;;;;;;;;;;19.40;99.90;;;;;;5025962;28;19920;-75
2021/07/11 07:34:36;;;;;;;;;;;19.30;99.90;;;;;;5026371;28;19909;-73
2021/07/11 07:37:02;;;;;;;;;;;19.30;99.90;;;;;;5031373;28;19909;-74
2021/07/11 07:39:28;;;;;;;;;;;19.30;99.90;;;;;;5033563;28;19909;-74
2021/07/11 07:41:54;;;;;;;;;;;19.30;99.90;;;;;;5031968;28;19920;-75
2021/07/11 07:44:20;;;;;;;;;;;19.20;99.90;;;;;;5042697;28;20277;-74
2021/07/11 07:46:45;;;;;;;;;;;19.20;99.90;;;;;;5037218;28;20297;-74
2021/07/11 07:49:11;;;;;;;;;;;19.10;99.90;;;;;;5032543;28;19909;-74
2021/07/11 07:51:36;;;;;;;;;;;19.20;99.90;;;;;;5030626;28;19909;-75
2021/07/11 07:54:02;;;;;;;;;;;19.30;99.90;;;;;;5017149;28;19909;-74
2021/07/11 07:56:28;;;;;;;;;;;19.30;99.90;;;;;;5044544;28;19909;-74
2021/07/11 07:58:53;;;;;;;;;;;19.40;99.90;;;;;;5031013;28;19947;-74
2021/07/11 08:01:19;;;;;;;;;;;19.40;99.90;;;;;;5034681;28;19917;-75
2021/07/11 08:03:44;;;;;;;;;;;19.40;99.90;;;;;;5034863;28;19928;-74
2021/07/11 08:06:10;;;;;;;;;;;19.40;99.90;;;;;;5036222;28;20258;-78
2021/07/11 08:08:35;;;;;;;;;;;19.50;99.90;;;;;;5037618;28;19909;-79
2021/07/11 08:11:01;;;;;;;;;;;19.50;99.90;;;;;;5037897;28;19913;-74
2021/07/11 08:13:26;;;;;;;;;;;19.50;99.90;;;;;;5036584;28;19913;-75
2021/07/11 08:15:52;;;;;;;;;;;19.60;99.90;;;;;;5036370;28;19909;-74
2021/07/11 08:18:17;;;;;;;;;;;19.60;99.90;;;;;;5036358;28;19916;-74
2021/07/11 08:20:43;;;;;;;;;;;19.60;99.90;;;;;;5036673;28;19909;-74
2021/07/11 08:23:08;;;;;;;;;;;19.50;99.90;;;;;;5035016;28;19935;-74
2021/07/11 08:25:34;;;;;;;;;;;19.40;99.90;;;;;;5033621;28;19913;-74
2021/07/11 08:27:59;;;;;;;;;;;19.30;99.90;;;;;;5034260;28;19909;-74
2021/07/11 08:30:25;;;;;;;;;;;19.30;99.90;;;;;;5032932;28;19916;-74
2021/07/11 08:32:51;;;;;;;;;;;19.20;99.90;;;;;;5033508;28;19916;-74
2021/07/11 08:35:17;;;;;;;;;;;19.30;99.90;;;;;;5034154;28;19909;-73
2021/07/11 08:37:42;;;;;;;;;;;19.30;99.90;;;;;;5034814;28;19920;-74
2021/07/11 08:40:09;;;;;;;;;;;19.30;99.90;;;;;;5036712;28;19916;-74
2021/07/11 08:42:36;;;;;;;;;;;19.40;99.90;;;;;;5032424;28;19917;-74
2021/07/11 08:45:01;;;;;;;;;;;19.40;99.90;;;;;;5026643;28;19947;-74
2021/07/11 08:47:27;;;;;;;;;;;19.50;99.90;;;;;;5026990;28;20356;-74
2021/07/11 08:49:53;;;;;;;;;;;19.70;99.90;;;;;;5027915;28;19913;-75
2021/07/11 08:52:19;;;;;;;;;;;19.80;99.90;;;;;;5029260;28;19959;-72
2021/07/11 08:54:44;;;;;;;;;;;19.90;99.90;;;;;;5034285;28;19948;-72
2021/07/11 08:57:11;;;;;;;;;;;19.90;99.90;;;;;;5036102;28;19916;-72
2021/07/11 08:59:40;;;;;;;;;;;19.90;99.90;;;;;;5033395;28;19954;-71
2021/07/11 09:02:05;;;;;;;;;;;20.00;99.90;;;;;;5032731;28;19936;-72
2021/07/11 09:04:38;;;;;;;;;;;20.10;99.90;;;;;;5034309;28;19913;-71
2021/07/11 09:07:05;;;;;;;;;;;19.90;99.90;;;;;;5032987;28;19948;-72
2021/07/11 09:09:34;;;;;;;;;;;19.80;99.90;;;;;;5033949;28;19909;-72
2021/07/11 09:12:03;;;;;;;;;;;19.90;99.90;;;;;;5033019;28;19908;-74
2021/07/11 09:14:29;;;;;;;;;;;19.90;99.90;;;;;;5031025;28;19909;-74
2021/07/11 09:16:56;;;;;;;;;;;19.90;99.90;;;;;;5028802;28;19917;-75
2021/07/11 09:19:22;;;;;;;;;;;20.10;99.90;;;;;;5049368;28;19913;-76
2021/07/11 09:21:52;;;;;;;;;;;20.20;99.90;;;;;;5034368;28;19983;-76
2021/07/11 09:24:17;;;;;;;;;;;20.40;99.90;;;;;;5032204;28;20368;-77
2021/07/11 09:26:44;;;;;;;;;;;20.40;99.90;;;;;;5031302;28;19909;-76
2021/07/11 09:29:09;;;;;;;;;;;20.30;99.90;;;;;;5035287;28;19916;-73
2021/07/11 09:31:35;;;;;;;;;;;20.20;99.90;;;;;;5034234;28;20372;-73
2021/07/11 09:34:01;;;;;;;;;;;20.30;99.90;;;;;;5039447;28;19909;-74
2021/07/11 09:36:27;;;;;;;;;;;20.40;99.90;;;;;;5035266;28;20258;-75
2021/07/11 09:38:55;;;;;;;;;;;20.50;99.90;;;;;;5041800;28;19962;-73
2021/07/11 09:41:25;;;;;;;;;;;20.50;99.90;;;;;;5054220;28;19948;-72
2021/07/11 09:43:58;;;;;;;;;;;20.40;99.90;;;;;;5042546;28;19928;-74
2021/07/11 09:46:24;;;;;;;;;;;20.40;99.90;;;;;;5027370;28;19940;-75
2021/07/11 09:48:49;;;;;;;;;;;20.50;99.90;;;;;;5026264;28;19962;-76
2021/07/11 09:51:19;;;;;;;;;;;20.60;99.90;;;;;;5038051;28;20003;-75
2021/07/11 09:53:45;;;;;;;;;;;20.80;99.90;;;;;;5038388;28;19958;-74
2021/07/11 09:56:29;;;;;;;;;;;20.80;99.90;;;;;;5032550;28;19913;-74
2021/07/11 09:58:55;;;;;;;;;;;20.70;99.90;;;;;;5043062;28;19924;-73
2021/07/11 10:01:22;;;;;;;;;;;20.80;99.90;;;;;;5024762;28;20369;-76
2021/07/11 10:03:48;;;;;;;;;;;20.90;99.90;;;;;;5028678;28;20398;-75
2021/07/11 10:06:13;;;;;;;;;;;21.00;99.90;;;;;;5027826;28;20047;-71
2021/07/11 10:08:39;;;;;;;;;;;21.00;99.90;;;;;;5027551;28;20309;-74
2021/07/11 10:11:05;;;;;;;;;;;21.10;99.90;;;;;;5026631;28;19963;-73
2021/07/11 10:13:31;;;;;;;;;;;21.10;99.90;;;;;;5026011;28;19909;-74
2021/07/11 10:15:56;;;;;;;;;;;21.10;99.90;;;;;;5029644;28;19916;-74
2021/07/11 10:18:22;;;;;;;;;;;21.10;99.90;;;;;;5026572;28;19909;-73
2021/07/11 10:20:53;;;;;;;;;;;21.20;99.90;;;;;;5041688;28;19978;-73
2021/07/11 10:23:33;;;;;;;;;;;21.20;99.90;;;;;;5049119;28;19913;-73
2021/07/11 10:26:00;;;;;;;;;;;21.10;99.90;;;;;;5049822;28;19916;-75
2021/07/11 10:28:26;;;;;;;;;;;21.00;99.90;;;;;;5057690;28;19916;-74
2021/07/11 10:30:52;;;;;;;;;;;20.90;99.90;;;;;;5041870;28;20341;-73
2021/07/11 10:33:21;;;;;;;;;;;20.90;99.90;;;;;;5050020;28;19913;-73
2021/07/11 10:35:52;;;;;;;;;;;20.90;99.90;;;;;;5047723;28;19909;-73
2021/07/11 10:38:34;;;;;;;;;;;20.80;99.90;;;;;;5048924;28;19932;-73
2021/07/11 10:41:14;;;;;;;;;;;20.80;99.90;;;;;;5048981;28;19955;-73
2021/07/11 10:43:40;;;;;;;;;;;20.90;99.90;;;;;;5046906;28;19920;-76
2021/07/11 10:46:06;;;;;;;;;;;21.00;99.90;;;;;;5054324;28;19960;-79
2021/07/11 10:48:31;;;;;;;;;;;21.10;99.90;;;;;;5051385;28;19940;-73
2021/07/11 10:50:57;;;;;;;;;;;21.00;99.90;;;;;;5047636;28;19919;-74
2021/07/11 10:53:23;;;;;;;;;;;20.90;99.90;;;;;;5045699;28;19909;-74
2021/07/11 10:55:48;;;;;;;;;;;21.00;99.90;;;;;;5043811;28;19909;-73
2021/07/11 10:58:15;;;;;;;;;;;21.10;99.90;;;;;;5042871;28;20008;-74
2021/07/11 11:00:41;;;;;;;;;;;21.30;99.90;;;;;;5048546;28;19909;-73
2021/07/11 11:03:36;;;;;;;;;;;21.30;99.90;;;;;;5051009;28;20284;-74
2021/07/11 11:06:11;;;;;;;;;;;21.40;99.90;;;;;;5043637;28;19909;-74
2021/07/11 11:08:42;;;;;;;;;;;21.50;99.90;;;;;;5054153;28;19909;-73
2021/07/11 11:11:07;;;;;;;;;;;21.50;99.90;;;;;;5052339;28;19909;-73
2021/07/11 11:13:33;;;;;;;;;;;21.70;99.90;;;;;;5055700;28;19916;-73
2021/07/11 11:16:00;;;;;;;;;;;21.80;99.90;;;;;;5053531;28;19909;-73
2021/07/11 11:18:25;;;;;;;;;;;21.70;99.90;;;;;;5051412;28;19913;-73
2021/07/11 11:20:55;;;;;;;;;;;21.80;99.90;;;;;;5052697;28;19931;-73
2021/07/11 11:23:21;;;;;;;;;;;22.00;99.90;;;;;;5053450;28;19913;-73
2021/07/11 11:25:46;;;;;;;;;;;22.30;99.90;;;;;;5047785;28;20376;-74
2021/07/11 11:28:12;;;;;;;;;;;22.70;99.90;;;;;;5047780;28;19909;-74
2021/07/11 11:30:38;;;;;;;;;;;22.70;99.90;;;;;;5061186;28;19927;-73
2021/07/11 11:33:04;;;;;;;;;;;22.60;99.90;;;;;;5048868;28;19919;-74
2021/07/11 11:35:34;;;;;;;;;;;22.60;99.90;;;;;;5048749;28;20339;-73
2021/07/11 11:38:01;;;;;;;;;;;22.70;99.90;;;;;;5053303;28;19909;-74
2021/07/11 11:40:27;;;;;;;;;;;22.80;99.90;;;;;;5055727;28;19909;-74
2021/07/11 11:42:58;;;;;;;;;;;23.20;99.90;;;;;;5053436;28;19909;-73
2021/07/11 11:45:25;;;;;;;;;;;23.30;99.90;;;;;;5056381;28;19948;-74
2021/07/11 11:48:09;;;;;;;;;;;23.30;99.90;;;;;;5054132;28;20381;-74
2021/07/11 11:50:35;;;;;;;;;;;23.30;99.90;;;;;;5054809;28;20033;-74
2021/07/11 11:53:11;;;;;;;;;;;23.50;99.90;;;;;;5054463;28;20290;-74
2021/07/11 11:55:38;;;;;;;;;;;23.80;99.90;;;;;;5053494;28;19913;-74
2021/07/11 11:58:05;;;;;;;;;;;24.10;99.90;;;;;;5053068;28;20058;-74
2021/07/11 12:00:30;;;;;;;;;;;24.40;99.90;;;;;;5045043;28;19917;-71
2021/07/11 12:03:06;;;;;;;;;;;24.50;99.90;;;;;;5042867;28;19917;-71
2021/07/11 12:05:32;;;;;;;;;;;24.80;99.90;;;;;;5039695;28;19909;-72
2021/07/11 12:07:58;;;;;;;;;;;24.80;99.90;;;;;;5041859;28;19931;-73
2021/07/11 12:10:24;;;;;;;;;;;24.60;99.90;;;;;;5039535;28;19909;-73
2021/07/11 12:12:57;;;;;;;;;;;24.30;99.90;;;;;;5040239;28;19923;-73
2021/07/11 12:15:33;;;;;;;;;;;24.00;99.90;;;;;;5040132;28;19915;-74
2021/07/11 12:18:00;;;;;;;;;;;23.80;99.90;;;;;;5039735;28;19954;-74
2021/07/11 12:20:26;;;;;;;;;;;24.00;99.90;;;;;;5040360;28;19982;-73
2021/07/11 12:22:52;;;;;;;;;;;24.00;99.90;;;;;;5040344;28;20000;-73
2021/07/11 12:25:20;;;;;;;;;;;24.00;99.90;;;;;;5039045;28;19916;-78
2021/07/11 12:27:48;;;;;;;;;;;23.90;99.90;;;;;;5036146;28;19956;-75
2021/07/11 12:30:15;;;;;;;;;;;23.80;99.90;;;;;;5037018;28;19912;-72
2021/07/11 12:32:51;;;;;;;;;;;23.80;99.90;;;;;;5040005;28;20008;-74
2021/07/11 12:35:18;;;;;;;;;;;23.90;99.90;;;;;;5039532;28;20004;-73
2021/07/11 12:37:57;;;;;;;;;;;24.10;99.90;;;;;;5040825;28;19973;-73
2021/07/11 12:40:27;;;;;;;;;;;24.10;99.90;;;;;;5039994;28;19915;-73
2021/07/11 12:43:20;;;;;;;;;;;24.30;99.90;;;;;;5037483;28;19909;-73
2021/07/11 12:46:01;;;;;;;;;;;24.40;99.90;;;;;;5037006;28;19988;-72
2021/07/11 12:48:33;;;;;;;;;;;24.50;99.90;;;;;;5039266;28;19915;-72
2021/07/11 12:50:59;;;;;;;;;;;24.50;99.90;;;;;;5041084;28;19964;-73
2021/07/11 12:53:34;;;;;;;;;;;24.40;99.90;;;;;;5039546;28;19909;-73
2021/07/11 12:56:01;;;;;;;;;;;24.50;99.90;;;;;;5039442;28;19909;-73
2021/07/11 12:58:34;;;;;;;;;;;24.80;99.90;;;;;;5038322;28;20278;-73
2021/07/11 13:01:03;;;;;;;;;;;25.00;99.90;;;;;;5037155;28;19913;-73
2021/07/11 13:03:29;;;;;;;;;;;24.90;99.90;;;;;;5039147;28;19940;-74
2021/07/11 13:05:57;;;;;;;;;;;24.80;99.90;;;;;;5038458;28;19913;-72
2021/07/11 13:08:22;;;;;;;;;;;24.60;99.90;;;;;;5036584;28;19909;-73
2021/07/11 13:10:48;;;;;;;;;;;24.50;99.90;;;;;;5037679;28;20447;-73
2021/07/11 13:13:13;;;;;;;;;;;24.40;99.90;;;;;;5038060;28;20372;-73
2021/07/11 13:15:40;;;;;;;;;;;24.30;99.90;;;;;;5036930;28;20007;-73
2021/07/11 13:18:06;;;;;;;;;;;24.30;99.90;;;;;;5037807;28;20004;-73
2021/07/11 13:20:32;;;;;;;;;;;24.40;99.90;;;;;;5035091;28;19952;-73
2021/07/11 13:22:57;;;;;;;;;;;24.40;99.90;;;;;;5035578;28;19956;-73
2021/07/11 13:25:23;;;;;;;;;;;24.30;99.90;;;;;;5036795;28;19916;-73
2021/07/11 13:27:49;;;;;;;;;;;24.30;99.90;;;;;;5036565;28;19909;-73
2021/07/11 13:30:15;;;;;;;;;;;24.20;99.90;;;;;;5034584;28;19920;-73
2021/07/11 13:32:41;;;;;;;;;;;24.10;99.90;;;;;;5051089;28;20395;-73
2021/07/11 13:35:07;;;;;;;;;;;24.10;99.90;;;;;;5036080;28;19909;-73
2021/07/11 13:37:34;;;;;;;;;;;24.00;99.90;;;;;;5035635;28;19916;-73
2021/07/11 13:40:00;;;;;;;;;;;24.00;99.90;;;;;;5036698;28;19909;-73
2021/07/11 13:42:26;;;;;;;;;;;24.00;99.90;;;;;;5035580;28;19987;-73
2021/07/11 13:44:51;;;;;;;;;;;24.00;99.90;;;;;;5034489;28;19917;-73
2021/07/11 13:47:17;;;;;;;;;;;23.90;99.90;;;;;;5034918;28;19915;-73
2021/07/11 13:49:42;;;;;;;;;;;23.80;99.90;;;;;;5035121;28;19948;-73
2021/07/11 13:52:08;;;;;;;;;;;23.80;99.90;;;;;;5034185;28;19909;-73
2021/07/11 13:54:33;;;;;;;;;;;23.80;99.90;;;;;;5032057;28;19913;-74
2021/07/11 13:56:59;;;;;;;;;;;23.90;99.90;;;;;;5034069;28;19974;-73
2021/07/11 13:59:24;;;;;;;;;;;23.80;99.90;;;;;;5034569;28;19909;-73
2021/07/11 14:01:50;;;;;;;;;;;23.80;99.90;;;;;;5032758;28;19920;-73
2021/07/11 14:04:15;;;;;;;;;;;23.80;99.90;;;;;;5035289;28;20277;-73
2021/07/11 14:06:41;;;;;;;;;;;23.70;99.90;;;;;;5034667;28;19963;-73
2021/07/11 14:09:06;;;;;;;;;;;23.80;99.90;;;;;;5034445;28;20004;-73
2021/07/11 14:11:32;;;;;;;;;;;23.70;99.90;;;;;;5034986;28;19916;-73
2021/07/11 14:13:57;;;;;;;;;;;23.70;99.90;;;;;;5034716;28;20365;-73
2021/07/11 14:16:23;;;;;;;;;;;23.70;99.90;;;;;;5050065;28;20003;-73